Главная страница
METAR-TAF:

METAR-TAF

Аэропорты :

Colville Lake, Северо-Западные Территории, Канада

широта: 67-01-16N, долгота: 126-07-43W, высота над уровнем моря: 274 м

Текущие метеонаблюдения

Эта сводка был подготовлена 27 минут назад, в 12:06 UTC
Ветер 6 Узел от северо-восточный
Температура -2°C
Влажность 100%
Давление 992 hPa
Видимость: 9.7 км
Рассеянная облачность на высоте 800 фута
Сплошная облачность на высоте 4300 фута
небольшой снег

METAR: CYVL 201206Z AUTO 04006KT 6SM -SN BKN008 OVC043 M02/M02 A2930 RMK SLP943

Время: 06:33 (12:33 UTC)


TAF: отсутствует

Метеонаблюдения и прогнозы для более 4000 аэропортов (сводки METAR и TAF).

Имеющиеся станции представлены на карте желтыми и красными точками.

Чтобы увидеть название станции, наведите на нее мышь.

Затем щелкните, чтобы увидеть метеонаблюдения и метеопрогнозы.

Управление картой: чтобы увеличить масштаб, щелкните зеленые кнопки с черным крестиком; чтобы уменьшить масштаб, щелкните зеленую кнопку с тире; для просмотра соседних карт щелкайте зеленые стрелки.


METAR-TAF: